Terminal Aerodrome Forecast
Issued by NWS Brownsville, TX

Home | Current Version | Previous Version | Text Only | Print | Product List | Glossary On
Versions: 1 2 3 4 5 6 7 8 9 10 11 12 13 14 15 16 17 18 19 20
000
FTUS44 KBRO 072334
TAFMFE
TAF
KMFE 072334Z 0800/0824 15021G27KT P6SM SCT045 SCT060
     FM080130 15014G20KT P6SM FEW040
     FM080600 15010KT P6SM SKC
      TEMPO 0811/0814 BKN020
     FM081400 16020G26KT P6SM SCT025 SCT040=

USA.gov is the U.S. government's official web portal to all federal, state and local government web resources and services.